createdAt,value
2018-07-16T00:00:13.458Z,74.50
2018-07-16T00:02:41.353Z,72.50
2018-07-16T00:05:09.251Z,74.60
2018-07-16T00:07:37.111Z,74.50
2018-07-16T00:10:05.070Z,73.80
2018-07-16T00:12:32.812Z,72.00
2018-07-16T00:19:56.227Z,73.30
2018-07-16T00:22:23.971Z,70.00
2018-07-16T00:24:51.784Z,69.40
2018-07-16T00:27:19.639Z,71.50
2018-07-16T00:29:47.399Z,69.70
2018-07-16T00:32:15.130Z,71.80
2018-07-16T00:34:42.956Z,72.20
2018-07-16T00:37:10.735Z,71.60
2018-07-16T00:39:38.550Z,67.30
2018-07-16T00:42:06.345Z,68.10
2018-07-16T00:47:01.940Z,71.00
2018-07-16T00:49:29.747Z,70.80
2018-07-16T00:51:57.583Z,67.40
2018-07-16T00:54:25.383Z,68.40
2018-07-16T00:56:53.215Z,70.40
2018-07-16T00:59:21.121Z,68.50
2018-07-16T01:01:48.967Z,70.10
2018-07-16T01:04:16.720Z,69.70
2018-07-16T01:06:44.463Z,69.00
2018-07-16T01:09:12.311Z,69.30
2018-07-16T01:11:40.149Z,67.90
2018-07-16T01:14:07.991Z,68.00
2018-07-16T01:16:35.803Z,76.60
2018-07-16T01:19:03.648Z,76.20
2018-07-16T01:21:31.423Z,77.40
2018-07-16T01:23:59.228Z,80.00
2018-07-16T01:26:26.994Z,81.70
2018-07-16T01:28:54.827Z,84.70
2018-07-16T01:31:22.609Z,84.10
2018-07-16T01:33:50.373Z,78.30
2018-07-16T01:36:18.215Z,82.60
2018-07-16T01:38:46.017Z,83.40
2018-07-16T01:41:13.856Z,85.00
2018-07-16T01:43:41.675Z,87.80
2018-07-16T01:46:09.489Z,81.90
2018-07-16T01:48:37.288Z,84.40
2018-07-16T01:51:05.023Z,85.90
2018-07-16T01:53:32.819Z,84.50
2018-07-16T01:56:00.752Z,86.70
2018-07-16T01:58:28.526Z,86.90
2018-07-16T02:00:59.650Z,86.00
2018-07-16T02:03:29.483Z,86.70
2018-07-16T02:05:57.300Z,87.70
2018-07-16T02:08:25.743Z,88.30
2018-07-16T02:10:53.964Z,89.10
2018-07-16T02:13:22.018Z,89.90
2018-07-16T02:15:50.093Z,89.60
2018-07-16T02:18:17.971Z,89.50
2018-07-16T02:20:46.423Z,90.20
2018-07-16T02:23:14.270Z,90.70
2018-07-16T02:25:42.013Z,89.70
2018-07-16T02:28:10.812Z,90.10
2018-07-16T02:30:39.337Z,90.00
2018-07-16T02:33:07.711Z,90.10
2018-07-16T02:35:35.476Z,90.10
2018-07-16T02:38:03.355Z,90.40
2018-07-16T02:40:31.243Z,90.70
2018-07-16T02:42:59.032Z,91.70
2018-07-16T02:45:27.099Z,89.30
2018-07-16T02:47:55.124Z,90.00
2018-07-16T02:50:22.929Z,88.70
2018-07-16T02:52:50.740Z,89.30
2018-07-16T02:55:18.561Z,89.40
2018-07-16T02:57:46.396Z,85.60
2018-07-16T03:00:14.213Z,90.70
2018-07-16T03:02:42.039Z,90.90
2018-07-16T03:05:15.528Z,90.80
2018-07-16T03:07:44.208Z,91.30
2018-07-16T03:10:12.307Z,92.40
2018-07-16T03:12:40.251Z,90.90
2018-07-16T03:15:08.047Z,90.10
2018-07-16T03:17:35.813Z,91.40
2018-07-16T03:20:03.941Z,91.20
2018-07-16T03:22:31.735Z,92.10
2018-07-16T03:24:59.519Z,91.00
2018-07-16T03:29:55.255Z,91.90
2018-07-16T03:32:23.300Z,87.20
2018-07-16T03:34:51.095Z,90.30
2018-07-16T03:37:18.879Z,91.60
2018-07-16T03:39:46.690Z,92.30
2018-07-16T03:42:14.519Z,91.80
2018-07-16T03:49:37.891Z,91.50
2018-07-16T03:52:05.788Z,91.60
2018-07-16T03:54:33.715Z,82.50
2018-07-16T03:57:01.553Z,85.90
2018-07-16T03:59:29.419Z,85.10
2018-07-16T04:01:57.201Z,80.40
2018-07-16T04:04:25.024Z,83.20
2018-07-16T04:06:52.811Z,84.50
2018-07-16T04:09:20.627Z,88.00
2018-07-16T04:11:48.459Z,90.90
2018-07-16T04:14:16.223Z,89.20
2018-07-16T04:16:44.033Z,82.40
2018-07-16T04:19:11.967Z,83.50
2018-07-16T04:21:39.760Z,80.50
2018-07-16T04:24:07.665Z,89.10
2018-07-16T04:26:35.472Z,80.70
2018-07-16T04:29:03.249Z,83.70
2018-07-16T04:31:31.068Z,87.50
2018-07-16T04:33:58.878Z,83.00
2018-07-16T04:36:26.675Z,86.70
2018-07-16T04:41:22.248Z,90.40
2018-07-16T04:43:50.115Z,87.30
2018-07-16T04:46:17.964Z,88.20
2018-07-16T04:48:45.747Z,81.40
2018-07-16T04:51:13.704Z,87.30
2018-07-16T04:53:41.527Z,85.60
2018-07-16T04:56:09.337Z,84.70
2018-07-16T04:58:37.167Z,82.60
2018-07-16T05:01:05.275Z,88.30
2018-07-16T05:03:33.087Z,87.40
2018-07-16T05:06:00.843Z,81.30
2018-07-16T05:08:28.670Z,85.20
2018-07-16T05:10:56.573Z,84.50
2018-07-16T05:13:24.369Z,84.50
2018-07-16T05:15:52.200Z,84.60
2018-07-16T05:18:20.073Z,83.80
2018-07-16T05:20:47.867Z,83.80
2018-07-16T05:23:15.739Z,84.10
2018-07-16T05:28:11.282Z,83.10
2018-07-16T05:30:39.111Z,84.50
2018-07-16T05:33:06.932Z,85.80
2018-07-16T05:35:34.790Z,84.20
2018-07-16T05:38:02.595Z,83.60
2018-07-16T05:40:30.383Z,80.70
2018-07-16T05:42:58.251Z,79.50
2018-07-16T05:45:26.092Z,80.60
2018-07-16T05:47:53.887Z,80.60
2018-07-16T05:50:21.819Z,79.70
2018-07-16T05:52:49.648Z,79.10
2018-07-16T05:55:17.535Z,77.80
2018-07-16T05:57:45.323Z,75.70
2018-07-16T06:00:13.136Z,75.60
2018-07-16T06:02:40.915Z,74.70
2018-07-16T06:05:08.748Z,75.80
2018-07-16T06:07:36.570Z,72.10
2018-07-16T06:10:04.415Z,75.40
2018-07-16T06:12:32.232Z,75.00
2018-07-16T06:15:00.007Z,74.60
2018-07-16T06:17:27.771Z,73.30
2018-07-16T06:19:55.620Z,73.50
2018-07-16T06:22:23.429Z,73.50
2018-07-16T06:24:51.268Z,74.60
2018-07-16T06:27:19.095Z,72.00
2018-07-16T06:29:46.927Z,71.60
2018-07-16T06:32:14.725Z,73.30
2018-07-16T06:34:42.527Z,72.60
2018-07-16T06:37:10.341Z,73.30
2018-07-16T06:39:38.236Z,71.30
2018-07-16T06:42:06.211Z,70.60
2018-07-16T06:47:01.828Z,69.30
2018-07-16T06:49:29.635Z,69.40
2018-07-16T06:51:57.452Z,70.60
2018-07-16T06:54:25.323Z,70.30
2018-07-16T06:56:53.107Z,70.20
2018-07-16T06:59:20.927Z,70.20
2018-07-16T07:01:48.747Z,71.90
2018-07-16T07:04:16.539Z,71.80
2018-07-16T07:06:44.396Z,71.60
2018-07-16T07:09:12.223Z,72.10
2018-07-16T07:11:40.000Z,72.10
2018-07-16T07:14:07.835Z,73.90
2018-07-16T07:16:35.692Z,74.40
2018-07-16T07:19:03.556Z,73.40
2018-07-16T07:21:31.303Z,72.90
2018-07-16T07:23:59.163Z,72.90
2018-07-16T07:26:27.050Z,73.50
2018-07-16T07:28:54.790Z,74.70
2018-07-16T07:31:22.623Z,74.60
2018-07-16T07:33:50.428Z,77.90
2018-07-16T07:36:18.244Z,80.70
2018-07-16T07:38:46.033Z,85.80
2018-07-16T07:43:41.720Z,91.20
2018-07-16T07:46:09.588Z,90.20
2018-07-16T07:48:37.389Z,91.40
2018-07-16T07:51:05.304Z,94.70
2018-07-16T07:53:33.115Z,93.20
2018-07-16T07:56:01.148Z,93.60
2018-07-16T08:00:56.995Z,91.20
2018-07-16T08:03:24.853Z,92.70
2018-07-16T08:05:58.290Z,92.30
2018-07-16T08:08:26.055Z,91.90
2018-07-16T08:10:53.917Z,91.90
2018-07-16T08:13:21.744Z,91.90
2018-07-16T08:15:49.743Z,91.60
2018-07-16T08:18:17.556Z,92.20
2018-07-16T08:20:45.343Z,90.60
2018-07-16T08:23:13.159Z,90.80
2018-07-16T08:25:40.987Z,90.90
2018-07-16T08:28:10.821Z,90.70
2018-07-16T08:30:38.647Z,91.80
2018-07-16T08:33:08.912Z,91.70
2018-07-16T08:35:39.382Z,91.20
2018-07-16T08:38:08.412Z,91.20
2018-07-16T08:40:36.239Z,89.60
2018-07-16T08:43:04.124Z,87.70
2018-07-16T08:45:34.346Z,88.30
2018-07-16T08:48:03.774Z,88.90
2018-07-16T08:50:32.197Z,90.50
2018-07-16T08:53:00.126Z,87.30
2018-07-16T08:55:27.974Z,87.70
2018-07-16T08:57:55.785Z,85.90
2018-07-16T09:00:23.723Z,85.90
2018-07-16T09:02:51.510Z,85.20
2018-07-16T09:05:19.291Z,85.30
2018-07-16T09:07:47.091Z,84.10
2018-07-16T09:10:15.032Z,84.10
2018-07-16T09:12:42.824Z,83.40
2018-07-16T09:15:10.648Z,82.80
2018-07-16T09:17:38.494Z,82.50
2018-07-16T09:20:06.384Z,83.30
2018-07-16T09:22:34.196Z,82.70
2018-07-16T09:25:02.116Z,83.70
2018-07-16T09:27:29.997Z,86.70
2018-07-16T09:29:57.800Z,87.20
2018-07-16T09:32:25.624Z,88.70
2018-07-16T09:34:53.460Z,88.30
2018-07-16T09:37:21.291Z,90.30
2018-07-16T09:42:16.955Z,90.20
2018-07-16T09:44:44.756Z,88.40
2018-07-16T09:47:12.597Z,88.20
2018-07-16T09:49:44.938Z,85.80
2018-07-16T09:52:13.052Z,84.20
2018-07-16T09:54:40.895Z,83.10
2018-07-16T09:57:08.680Z,84.00
2018-07-16T09:59:36.503Z,81.80
2018-07-16T10:02:10.119Z,81.60
2018-07-16T10:04:37.961Z,81.80
2018-07-16T10:07:05.909Z,80.70
2018-07-16T10:09:33.842Z,77.70
2018-07-16T10:12:02.177Z,77.60
2018-07-16T10:14:30.029Z,74.30
2018-07-16T10:16:57.887Z,69.50
2018-07-16T10:19:25.694Z,68.80
2018-07-16T10:21:53.535Z,69.40
2018-07-16T10:24:21.359Z,69.70
2018-07-16T10:26:49.164Z,69.70
2018-07-16T10:29:16.936Z,71.50
2018-07-16T10:34:12.461Z,68.80
2018-07-16T10:36:40.271Z,68.20
2018-07-16T10:39:08.105Z,65.60
2018-07-16T10:41:36.207Z,64.10
2018-07-16T10:44:04.135Z,63.90
2018-07-16T10:46:31.966Z,62.50
2018-07-16T10:48:59.771Z,59.60
2018-07-16T10:51:29.710Z,57.20
2018-07-16T10:53:57.542Z,55.00
2018-07-16T10:56:37.059Z,52.10
2018-07-16T10:59:05.256Z,49.40
2018-07-16T11:01:33.128Z,48.10
2018-07-16T11:04:01.020Z,47.20
2018-07-16T11:06:28.911Z,46.00
2018-07-16T11:08:56.800Z,46.30
2018-07-16T11:11:24.561Z,43.60
2018-07-16T11:13:52.408Z,41.30
2018-07-16T11:16:20.185Z,41.90
2018-07-16T11:18:47.959Z,42.00
2018-07-16T11:21:15.825Z,40.40
2018-07-16T11:23:44.846Z,40.30
2018-07-16T11:26:12.864Z,40.50
2018-07-16T11:28:41.175Z,39.60
2018-07-16T11:31:09.086Z,38.00
2018-07-16T11:33:36.935Z,36.70
2018-07-16T11:36:05.203Z,35.90
2018-07-16T11:38:33.094Z,38.00
2018-07-16T11:41:00.938Z,36.90
2018-07-16T11:43:29.225Z,36.70
2018-07-16T11:45:57.284Z,34.40
2018-07-16T11:48:25.091Z,32.70
2018-07-16T11:50:52.910Z,30.00
2018-07-16T11:53:20.683Z,31.40
2018-07-16T11:55:48.438Z,32.00
2018-07-16T11:58:16.199Z,32.10
2018-07-16T12:00:44.019Z,32.10
2018-07-16T12:03:11.752Z,31.60
2018-07-16T12:05:39.553Z,32.30
2018-07-16T12:08:07.503Z,33.10
2018-07-16T12:10:35.628Z,32.60
2018-07-16T12:13:03.456Z,32.80
2018-07-16T12:15:37.652Z,33.50
2018-07-16T12:18:05.460Z,31.90
2018-07-16T12:20:35.206Z,31.60
2018-07-16T12:23:03.412Z,30.50
2018-07-16T12:25:31.644Z,30.90
2018-07-16T12:27:59.555Z,29.60
2018-07-16T12:30:27.347Z,30.20
2018-07-16T12:32:55.579Z,33.40
2018-07-16T12:35:23.279Z,30.00
2018-07-16T12:37:54.183Z,30.30
2018-07-16T12:40:26.261Z,30.40
2018-07-16T12:42:55.827Z,28.70
2018-07-16T12:45:26.928Z,28.20
2018-07-16T12:47:54.691Z,27.90
2018-07-16T12:50:22.527Z,28.20
2018-07-16T12:52:50.604Z,29.20
2018-07-16T12:55:18.440Z,28.60
2018-07-16T12:57:46.280Z,27.00
2018-07-16T13:00:14.059Z,27.90
2018-07-16T13:02:41.887Z,28.20
2018-07-16T13:05:10.594Z,27.70
2018-07-16T13:07:38.435Z,28.50
2018-07-16T13:10:06.343Z,28.30
2018-07-16T13:12:34.203Z,28.00
2018-07-16T13:15:02.020Z,28.50
2018-07-16T13:17:29.783Z,27.80
2018-07-16T13:19:57.587Z,27.00
2018-07-16T13:22:25.399Z,28.40
2018-07-16T13:24:53.201Z,27.90
2018-07-16T13:27:21.024Z,28.90
2018-07-16T13:29:48.932Z,26.80
2018-07-16T13:32:16.640Z,28.40
2018-07-16T13:34:44.463Z,27.80
2018-07-16T13:37:12.362Z,26.70
2018-07-16T13:39:40.119Z,27.80
2018-07-16T13:42:07.899Z,25.90
2018-07-16T13:44:35.714Z,28.20
2018-07-16T13:47:03.511Z,26.80
2018-07-16T13:49:31.364Z,26.80
2018-07-16T13:51:59.264Z,28.80
2018-07-16T13:54:27.085Z,30.20
2018-07-16T13:56:56.499Z,29.10
2018-07-16T13:59:25.412Z,28.30
2018-07-16T14:01:53.160Z,28.00
2018-07-16T14:04:22.556Z,27.90
2018-07-16T14:06:50.445Z,28.60
2018-07-16T14:09:18.603Z,30.10
2018-07-16T14:11:46.367Z,28.90
2018-07-16T14:14:14.134Z,29.60
2018-07-16T14:16:41.920Z,29.90
2018-07-16T14:19:09.753Z,29.50
2018-07-16T14:21:38.256Z,29.90
2018-07-16T14:24:06.163Z,31.40
2018-07-16T14:26:34.006Z,32.20
2018-07-16T14:29:01.859Z,30.00
2018-07-16T14:31:29.607Z,30.90
2018-07-16T14:33:58.144Z,30.20
2018-07-16T14:36:26.735Z,30.10
2018-07-16T14:38:54.548Z,31.10
2018-07-16T14:41:22.507Z,31.90
2018-07-16T14:43:52.447Z,30.30
2018-07-16T14:46:20.264Z,35.20
2018-07-16T14:48:48.032Z,31.20
2018-07-16T14:51:15.960Z,30.40
2018-07-16T14:53:43.727Z,30.90
2018-07-16T14:56:11.463Z,32.20
2018-07-16T14:58:39.701Z,31.00
2018-07-16T15:01:07.523Z,30.90
2018-07-16T15:03:37.310Z,32.30
2018-07-16T15:08:33.580Z,31.30
2018-07-16T15:11:01.387Z,32.40
2018-07-16T15:13:29.221Z,31.70
2018-07-16T15:15:57.047Z,33.00
2018-07-16T15:18:24.868Z,33.80
2018-07-16T15:20:52.897Z,32.00
2018-07-16T15:23:23.631Z,34.10
2018-07-16T15:25:52.160Z,30.90
2018-07-16T15:28:20.928Z,32.50
2018-07-16T15:30:48.711Z,33.80
2018-07-16T15:33:18.217Z,31.20
2018-07-16T15:35:47.237Z,33.30
2018-07-16T15:38:15.347Z,31.00
2018-07-16T15:40:43.753Z,32.00
2018-07-16T15:43:11.508Z,31.00
2018-07-16T15:45:39.385Z,31.30
2018-07-16T15:50:34.852Z,31.90
2018-07-16T15:53:05.498Z,32.20
2018-07-16T15:55:33.825Z,31.20
2018-07-16T15:58:06.070Z,34.50
2018-07-16T16:00:33.940Z,33.90
2018-07-16T16:03:04.805Z,33.60
2018-07-16T16:05:33.349Z,32.90
2018-07-16T16:08:01.252Z,32.30
2018-07-16T16:10:33.823Z,33.70
2018-07-16T16:13:01.683Z,33.10
2018-07-16T16:15:29.392Z,32.50
2018-07-16T16:17:57.251Z,32.30
2018-07-16T16:20:25.119Z,33.30
2018-07-16T16:22:52.920Z,32.40
2018-07-16T16:25:20.787Z,33.10
2018-07-16T16:27:48.619Z,34.30
2018-07-16T16:30:16.392Z,31.80
2018-07-16T16:32:44.307Z,31.60
2018-07-16T16:35:12.051Z,32.40
2018-07-16T16:37:39.935Z,31.50
2018-07-16T16:40:07.771Z,31.80
2018-07-16T16:42:35.612Z,33.90
2018-07-16T16:45:03.431Z,30.80
2018-07-16T16:47:31.185Z,32.20
2018-07-16T16:49:59.031Z,33.00
2018-07-16T16:52:26.815Z,31.90
2018-07-16T16:54:54.619Z,30.60
2018-07-16T16:57:22.375Z,32.30
2018-07-16T16:59:50.183Z,30.50
2018-07-16T17:02:17.979Z,31.30
2018-07-16T17:04:45.748Z,30.40
2018-07-16T17:07:13.697Z,34.60
2018-07-16T17:09:43.079Z,34.20
2018-07-16T17:12:11.859Z,34.10
2018-07-16T17:14:39.739Z,34.70
2018-07-16T17:17:07.511Z,35.10
2018-07-16T17:19:35.279Z,35.60
2018-07-16T17:22:03.267Z,35.90
2018-07-16T17:24:32.489Z,35.90
2018-07-16T17:27:00.376Z,35.70
2018-07-16T17:29:31.839Z,36.30
2018-07-16T17:31:59.660Z,36.20
2018-07-16T17:34:27.435Z,37.20
2018-07-16T17:36:55.200Z,37.90
2018-07-16T17:39:22.983Z,37.80
2018-07-16T17:41:50.731Z,37.70
2018-07-16T17:44:18.532Z,37.60
2018-07-16T17:46:46.368Z,37.20
2018-07-16T17:49:14.257Z,37.40
2018-07-16T17:51:42.246Z,37.50
2018-07-16T17:54:10.307Z,37.90
2018-07-16T17:56:38.405Z,38.70
2018-07-16T17:59:07.556Z,37.40
2018-07-16T18:01:35.587Z,37.80
2018-07-16T18:04:03.455Z,37.90
2018-07-16T18:06:31.359Z,38.40
2018-07-16T18:08:59.139Z,39.00
2018-07-16T18:11:27.064Z,39.20
2018-07-16T18:13:55.048Z,39.60
2018-07-16T18:16:22.824Z,39.90
2018-07-16T18:18:50.565Z,40.50
2018-07-16T18:21:18.336Z,41.40
2018-07-16T18:23:47.679Z,39.90
2018-07-16T18:26:15.622Z,40.50
2018-07-16T18:31:11.207Z,41.00
2018-07-16T18:33:39.031Z,41.10
2018-07-16T18:36:06.928Z,41.10
2018-07-16T18:38:34.865Z,41.70
2018-07-16T18:41:02.904Z,41.50
2018-07-16T18:43:30.787Z,42.70
2018-07-16T18:46:04.267Z,42.90
2018-07-16T18:48:37.134Z,44.00
2018-07-16T18:51:06.432Z,44.80
2018-07-16T18:53:39.363Z,45.70
2018-07-16T18:56:07.196Z,46.90
2018-07-16T18:58:34.967Z,48.10
2018-07-16T19:01:02.986Z,48.70
2018-07-16T19:03:30.934Z,49.70
2018-07-16T19:05:58.735Z,50.00
2018-07-16T19:08:26.645Z,50.40
2018-07-16T19:10:54.383Z,50.40
2018-07-16T19:13:22.357Z,50.70
2018-07-16T19:15:50.075Z,51.20
2018-07-16T19:18:17.927Z,51.10
2018-07-16T19:20:49.717Z,51.30
2018-07-16T19:23:23.631Z,52.30
2018-07-16T19:25:59.728Z,52.50
2018-07-16T19:31:09.261Z,53.00
2018-07-16T19:33:40.914Z,53.70
2018-07-16T19:41:09.430Z,54.40
2018-07-16T19:43:37.697Z,55.70
2018-07-16T19:46:05.483Z,54.80
2018-07-16T19:48:33.387Z,55.20
2018-07-16T19:51:01.538Z,55.30
2018-07-16T19:53:29.359Z,55.90
2018-07-16T19:55:58.756Z,56.10
2018-07-16T19:58:26.620Z,56.60
2018-07-16T20:00:54.446Z,56.40
2018-07-16T20:03:22.295Z,56.60
2018-07-16T20:05:50.109Z,56.80
2018-07-16T20:08:18.701Z,57.20
2018-07-16T20:10:46.599Z,58.10
2018-07-16T20:13:14.792Z,57.70
2018-07-16T20:15:42.798Z,57.80
2018-07-16T20:18:12.928Z,57.80
2018-07-16T20:20:54.305Z,58.80
2018-07-16T20:23:22.211Z,59.30
2018-07-16T20:25:53.980Z,58.90
2018-07-16T20:28:21.954Z,59.50
2018-07-16T20:30:50.264Z,59.20
2018-07-16T20:33:18.323Z,59.40
2018-07-16T20:35:46.552Z,59.80
2018-07-16T20:38:19.212Z,61.20
2018-07-16T20:40:48.414Z,60.90
2018-07-16T20:43:16.355Z,60.70
2018-07-16T20:45:51.564Z,61.70
2018-07-16T20:48:20.056Z,61.90
2018-07-16T20:50:47.900Z,62.40
2018-07-16T20:53:15.707Z,61.30
2018-07-16T20:55:43.514Z,62.50
2018-07-16T20:58:16.186Z,62.70
2018-07-16T21:03:11.836Z,63.60
2018-07-16T21:05:39.583Z,64.90
2018-07-16T21:08:07.359Z,66.20
2018-07-16T21:10:38.011Z,66.20
2018-07-16T21:13:05.798Z,68.30
2018-07-16T21:15:36.333Z,68.20
2018-07-16T21:18:18.192Z,68.30
2018-07-16T21:20:48.185Z,68.80
2018-07-16T21:25:43.879Z,69.40
2018-07-16T21:28:11.647Z,69.40
2018-07-16T21:30:41.699Z,69.80
2018-07-16T21:33:09.539Z,68.20
2018-07-16T21:35:40.262Z,69.80
2018-07-16T21:38:09.611Z,69.60
2018-07-16T21:40:37.518Z,69.20
2018-07-16T21:43:05.551Z,69.80
2018-07-16T21:45:33.500Z,68.40
2018-07-16T21:48:02.021Z,68.50
2018-07-16T21:50:30.835Z,68.90
2018-07-16T21:52:58.636Z,70.10
2018-07-16T21:55:29.653Z,70.10
2018-07-16T21:58:03.384Z,70.10
2018-07-16T22:00:32.370Z,70.70
2018-07-16T22:03:02.992Z,70.30
2018-07-16T22:05:30.799Z,71.10
2018-07-16T22:07:59.465Z,69.20
2018-07-16T22:10:27.223Z,67.30
2018-07-16T22:12:56.095Z,65.80
2018-07-16T22:15:27.872Z,68.70
2018-07-16T22:17:58.075Z,65.70
2018-07-16T22:20:32.901Z,65.00
2018-07-16T22:23:00.839Z,71.60
2018-07-16T22:25:28.881Z,72.90
2018-07-16T22:28:03.317Z,69.30
2018-07-16T22:30:31.882Z,73.90
2018-07-16T22:32:59.707Z,75.60
2018-07-16T22:35:30.360Z,76.50
2018-07-16T22:37:58.906Z,76.30
2018-07-16T22:40:31.127Z,74.90
2018-07-16T22:43:12.934Z,75.20
2018-07-16T22:45:46.392Z,73.60
2018-07-16T22:48:14.184Z,76.20
2018-07-16T22:50:42.012Z,76.20
2018-07-16T22:53:10.876Z,77.20
2018-07-16T22:55:38.755Z,73.90
2018-07-16T22:58:07.086Z,73.80
2018-07-16T23:00:34.971Z,71.40
2018-07-16T23:03:02.912Z,78.00
2018-07-16T23:05:31.366Z,78.60
2018-07-16T23:07:59.467Z,78.50
2018-07-16T23:10:27.389Z,79.00
2018-07-16T23:12:55.186Z,79.10
2018-07-16T23:15:23.083Z,81.50
2018-07-16T23:17:54.680Z,81.20
2018-07-16T23:20:22.552Z,82.50
2018-07-16T23:22:56.195Z,83.60
2018-07-16T23:25:24.148Z,83.90
2018-07-16T23:27:52.194Z,83.50
2018-07-16T23:30:20.021Z,83.30
2018-07-16T23:32:57.762Z,84.10
2018-07-16T23:35:25.678Z,83.80
2018-07-16T23:37:53.468Z,83.40
2018-07-16T23:40:31.934Z,83.10
2018-07-16T23:43:02.006Z,83.90
2018-07-16T23:45:30.125Z,84.70
2018-07-16T23:47:59.431Z,85.20
2018-07-16T23:50:27.421Z,85.10
2018-07-16T23:52:55.228Z,86.30
2018-07-16T23:55:23.080Z,86.00
2018-07-16T23:57:56.417Z,87.30
